Buoy 13516

sailwx.info

Track history (hours):
 
Tides and Currents Weather Stations Pressure Air Temp Water Temp Dewpoint Dewpoint Depression Visibility Wind Speed Wind Dir Waves Ship Positions

Ao Chao Yang 13516

Last reported at 2015-Aug-28 06:57 UTC. Time now 2015-Aug-28 07:36 UTC.
Position N 25°38' W 049°31'.

Length 20 m.

Type: Fishing. MMSI: 412469022.

Water temperature 28.8 ° C

Date/timePositionNaut miles runAvg speedWind from/ knotsBaromVisibWave heightAir tempDewpointWater temp
2015-Aug-28 06:57N 25°38' W 049°31'0 0.4 28.8
2015-Aug-28 06:15N 25°38' W 049°31'0 0.1 28.9
2015-Aug-28 04:39N 25°38' W 049°31'0 0.2 29.2
2015-Aug-28 02:23N 25°38' W 049°31'0 0.0 29.5
2015-Aug-28 01:41N 25°38' W 049°31'0 0.1 29.5
2015-Aug-28 00:48N 25°38' W 049°31'0 0.2 29.5
2015-Aug-28 00:03N 25°38' W 049°31'0 3.6 29.4
2015-Aug-28 00:02N 25°38' W 049°31'0 0.0 29.4
2015-Aug-27 23:59N 25°38' W 049°31'0 2.9 29.4
2015-Aug-27 23:53N 25°38' W 049°31'0 0.0 29.4
2015-Aug-27 23:08N 25°38' W 049°31'0 2.9 29.7
2015-Aug-27 22:59N 25°38' W 049°30'0 0.1 29.7
2015-Aug-27 20:14N 25°38' W 049°31'1 0.2 30.3
2015-Aug-27 17:54N 25°38' W 049°30'0 1.2 30.5
2015-Aug-27 17:51N 25°38' W 049°30'0 0.2 30.5
2015-Aug-27 16:09N 25°38' W 049°30'1 0.2 30.7
2015-Aug-27 10:08N 25°39' W 049°29'0 0.1 28.5
2015-Aug-27 08:38N 25°39' W 049°29'0 0.2 28.5
2015-Aug-27 07:09N 25°39' W 049°29'0 0.1 28.6
2015-Aug-27 02:02N 25°39' W 049°29'0 0.2 29.2
2015-Aug-27 01:03N 25°39' W 049°29'1 0.3 29.4
2015-Aug-26 22:03N 25°39' W 049°28'0 0.6 29.9
2015-Aug-26 21:50N 25°38' W 049°28'1 0.6 30.0
2015-Aug-26 20:08N 25°38' W 049°28'0 0.1 30.5
2015-Aug-26 18:06N 25°38' W 049°28'1 0.4 30.5
2015-Aug-26 14:47N 25°38' W 049°26'0 0.4 29.0
2015-Aug-26 13:54N 25°38' W 049°26'1 0.6 28.7
2015-Aug-26 13:02N 25°38' W 049°25'1 0.3 28.5
2015-Aug-26 09:00N 25°38' W 049°24'1 6.5 28.2
2015-Aug-26 08:54N 25°38' W 049°24'0 0.1 28.2
2015-Aug-26 05:03N 25°39' W 049°24'0 2.6 28.2
2015-Aug-26 04:57N 25°38' W 049°24'1 0.2 28.2
2015-Aug-26 00:44N 25°38' W 049°24'0 0.0 28.4
2015-Aug-25 23:50N 25°38' W 049°24'0 0.2 28.5
2015-Aug-25 22:54N 25°38' W 049°24'1 0.5
2015-Aug-25 20:36N 25°37' W 049°23'0 0.7 28.7
2015-Aug-25 20:18N 25°37' W 049°23'1 0.5 28.7
2015-Aug-25 18:54N 25°37' W 049°22'4 0.5 28.7
2015-Aug-25 11:47N 25°35' W 049°18'1 7.3 28.2
2015-Aug-25 11:39N 25°36' W 049°18'0 0.0 28.2
2015-Aug-25 10:59N 25°36' W 049°18'1 0.8 28.1
2015-Aug-25 09:09N 25°35' W 049°17'0 4.9 28.1
2015-Aug-25 09:06N 25°36' W 049°17'0 0.1 28.1
2015-Aug-25 06:54N 25°36' W 049°17'1 0.3 28.2
2015-Aug-25 05:14N 25°35' W 049°16'112.3 28.2
2015-Aug-25 05:08N 25°35' W 049°15'0 0.0 28.2
2015-Aug-25 01:48N 25°35' W 049°15'0 1.2 28.2
2015-Aug-25 01:45N 25°35' W 049°15'0 0.1 28.2
2015-Aug-25 01:03N 25°35' W 049°15'0 1.6 28.2
2015-Aug-25 00:59N 25°35' W 049°15'0 0.0 28.2
2015-Aug-25 00:08N 25°35' W 049°15'1 0.3 28.2
2015-Aug-24 21:00N 25°34' W 049°14'0 2.5 28.3
2015-Aug-24 20:48N 25°34' W 049°14'0 0.1 28.3
2015-Aug-24 19:06N 25°34' W 049°14'3 0.6 28.3
2015-Aug-24 13:50N 25°31' W 049°12'1 0.9 28.1
2015-Aug-24 12:47N 25°31' W 049°11'1 1.4 28.1
2015-Aug-24 12:02N 25°31' W 049°10'0 0.3 28.1
2015-Aug-24 11:09N 25°30' W 049°10'1 0.4 28.1
2015-Aug-24 08:32N 25°30' W 049°09'0 0.3 28.1
2015-Aug-24 08:03N 25°30' W 049°09'3 0.5 28.1
2015-Aug-24 02:03N 25°30' W 049°05'2 0.3 28.1
2015-Aug-23 20:54N 25°29' W 049°03'1 0.4 28.2
2015-Aug-23 19:17N 25°29' W 049°03'2 0.8 28.2
2015-Aug-23 17:00N 25°28' W 049°01'113.0 28.2
2015-Aug-23 16:54N 25°27' W 049°00'0 0.0 28.2
2015-Aug-23 14:53N 25°27' W 049°00'1 1.0 28.0
2015-Aug-23 14:09N 25°27' W 048°59'3 0.7 28.0
2015-Aug-23 10:09N 25°26' W 048°57'1 0.6 27.9
2015-Aug-23 07:54N 25°26' W 048°55'4 1.0 28.0
2015-Aug-23 03:54N 25°24' W 048°52'0 0.0 28.0
2015-Aug-23 01:44N 25°24' W 048°52'0 0.5 28.1
2015-Aug-23 00:51N 25°24' W 048°51'0 0.5 28.3
2015-Aug-23 00:06N 25°23' W 048°51'0 2.9 28.4
2015-Aug-22 23:57N 25°23' W 048°51'0 0.3 28.4
2015-Aug-22 23:06N 25°23' W 048°51'1 0.6 28.5
2015-Aug-22 21:50N 25°23' W 048°50'0 0.6 28.6
2015-Aug-22 21:09N 25°23' W 048°50'022.6 28.6
2015-Aug-22 21:08N 25°22' W 048°50'0 0.4 28.6
2015-Aug-22 20:06N 25°22' W 048°50'1 1.1 28.6
2015-Aug-22 18:50N 25°21' W 048°49'0 0.1 28.6
2015-Aug-22 17:09N 25°21' W 048°49'2 0.3 28.5
2015-Aug-22 11:51N 25°20' W 048°48'1 0.7 27.9
2015-Aug-22 09:53N 25°18' W 048°47'1 0.8 28.0
2015-Aug-22 08:06N 25°17' W 048°46'2 2.2 28.1
2015-Aug-22 07:09N 25°17' W 048°44'1 0.2
2015-Aug-22 04:08N 25°16' W 048°43'0 0.0 28.2
2015-Aug-22 02:03N 25°16' W 048°43'2 0.5 28.4
2015-Aug-21 22:09N 25°16' W 048°41'1 0.2 28.9
2015-Aug-21 19:00N 25°16' W 048°41'1 0.3 29.7
2015-Aug-21 14:44N 25°15' W 048°41'0 0.0 29.1
2015-Aug-21 13:53N 25°15' W 048°41'0 0.3 28.9
2015-Aug-21 12:14N 25°15' W 048°40'0 3.4 28.5
2015-Aug-21 12:08N 25°15' W 048°40'0 0.3 28.4
2015-Aug-21 10:59N 25°15' W 048°40'0 0.5 28.2
2015-Aug-21 10:02N 25°15' W 048°40'0 5.6 28.1
2015-Aug-21 09:59N 25°15' W 048°40'1 0.8 28.1
2015-Aug-21 09:14N 25°14' W 048°39'0 0.0 28.2
2015-Aug-21 08:24N 25°14' W 048°39'0 1.1 28.2
2015-Aug-21 08:14N 25°14' W 048°39'1 0.3 28.2
2015-Aug-21 06:00N 25°14' W 048°39'1 5.0 28.2
2015-Aug-21 05:54N 25°14' W 048°38'0 7.4 28.2
2015-Aug-21 05:53N 25°14' W 048°38'0 0.1 28.3
2015-Aug-21 04:18N 25°14' W 048°38'1 0.5 28.3
2015-Aug-21 01:32N 25°14' W 048°36'0 0.0 28.2
2015-Aug-21 01:27N 25°14' W 048°36'0 0.3 28.2
2015-Aug-21 00:39N 25°14' W 048°36'0 0.4 28.1
2015-Aug-20 23:53N 25°14' W 048°36'0 0.3 28.1
2015-Aug-20 23:05N 25°14' W 048°36'0 3.5 28.2
2015-Aug-20 22:59N 25°14' W 048°35'0 0.1 28.2
2015-Aug-20 21:00N 25°14' W 048°35'0 0.1 28.5
2015-Aug-20 19:54N 25°14' W 048°35'0 0.3 28.8
2015-Aug-20 19:09N 25°14' W 048°35'0 0.5 28.9
2015-Aug-20 18:09N 25°14' W 048°35'0 0.2 28.9
2015-Aug-20 15:53N 25°14' W 048°34'1 0.3 28.5
2015-Aug-20 11:51N 25°14' W 048°33'1 0.4 27.9
2015-Aug-20 10:35N 25°13' W 048°33'0 0.7 27.8
2015-Aug-20 10:09N 25°14' W 048°33'1 0.5 27.8
2015-Aug-20 08:02N 25°14' W 048°32'0 0.0 27.8
2015-Aug-20 07:51N 25°14' W 048°32'1 0.5 27.9
2015-Aug-20 06:09N 25°13' W 048°31'139.1 27.9
2015-Aug-20 06:08N 25°13' W 048°30'1 0.3 27.9
2015-Aug-20 01:53N 25°13' W 048°29'0 0.7 27.9
2015-Aug-20 01:48N 25°13' W 048°29'2 0.4 27.9
2015-Aug-19 20:05N 25°14' W 048°26'012.6 28.3
2015-Aug-19 20:03N 25°14' W 048°27'0 0.0 28.3
2015-Aug-19 19:45N 25°14' W 048°27'2 0.4 28.3
2015-Aug-19 16:02N 25°13' W 048°26'1 0.2 28.2
2015-Aug-19 13:54N 25°13' W 048°25'0 0.0 28.0
2015-Aug-19 13:50N 25°13' W 048°25'1 0.5 28.0
2015-Aug-19 11:15N 25°13' W 048°24'0 2.5 27.7
2015-Aug-19 11:09N 25°13' W 048°23'0 0.2 27.7
2015-Aug-19 10:09N 25°13' W 048°23'2 0.5 27.7
2015-Aug-19 07:03N 25°13' W 048°22'0 0.1 27.8
2015-Aug-19 06:23N 25°13' W 048°22'0 1.6 27.8
2015-Aug-19 06:20N 25°13' W 048°22'0 4.6 27.8
2015-Aug-19 06:15N 25°13' W 048°21'3 0.4 27.8
2015-Aug-18 23:48N 25°13' W 048°18'1 0.7 28.1
2015-Aug-18 22:53N 25°13' W 048°18'0 3.5 28.1
2015-Aug-18 22:48N 25°14' W 048°18'0 0.2 28.1
2015-Aug-18 21:54N 25°14' W 048°18'221.8 28.2
2015-Aug-18 21:48N 25°15' W 048°16'2 1.5 28.2
2015-Aug-18 20:17N 25°14' W 048°18'0 0.1 28.3
2015-Aug-18 17:54N 25°14' W 048°18'0 0.0 28.3
2015-Aug-18 17:53N 25°14' W 048°18'0 0.3 28.3
2015-Aug-18 16:15N 25°13' W 048°18'1 1.1 28.1
2015-Aug-18 14:54N 25°12' W 048°17'0 0.1 27.9
2015-Aug-18 14:09N 25°12' W 048°17'1 0.7 27.9
2015-Aug-18 13:20N 25°12' W 048°16'1 0.7 27.9
2015-Aug-18 11:35N 25°11' W 048°15'1 6.8 27.7
2015-Aug-18 11:30N 25°12' W 048°15'0 0.1 27.7
2015-Aug-18 10:33N 25°12' W 048°15'1 1.1 27.7
2015-Aug-18 09:54N 25°11' W 048°14'1 0.6 27.7
2015-Aug-18 08:54N 25°11' W 048°14'   27.7
Track history (hours):
 
Tides and Currents Weather Stations Pressure Air Temp Water Temp Dewpoint Dewpoint Depression Visibility Wind Speed Wind Dir Waves Ship Positions

Ao Chao Yang 13516

Last reported at 2015-Aug-28 06:57 UTC. Time now 2015-Aug-28 07:36 UTC.
Position N 25°38' W 049°31'.

Length 20 m.

Type: Fishing. MMSI: 412469022.

Water temperature 28.8 ° C

Date/timePositionNaut miles runAvg speedWind from/ knotsBaromVisibWave heightAir tempDewpointWater temp
2015-Aug-28 06:57N 25°38' W 049°31'0 0.4 28.8
2015-Aug-28 06:15N 25°38' W 049°31'0 0.1 28.9
2015-Aug-28 04:39N 25°38' W 049°31'0 0.2 29.2
2015-Aug-28 02:23N 25°38' W 049°31'0 0.0 29.5
2015-Aug-28 01:41N 25°38' W 049°31'0 0.1 29.5
2015-Aug-28 00:48N 25°38' W 049°31'0 0.2 29.5
2015-Aug-28 00:03N 25°38' W 049°31'0 3.6 29.4
2015-Aug-28 00:02N 25°38' W 049°31'0 0.0 29.4
2015-Aug-27 23:59N 25°38' W 049°31'0 2.9 29.4
2015-Aug-27 23:53N 25°38' W 049°31'0 0.0 29.4
2015-Aug-27 23:08N 25°38' W 049°31'0 2.9 29.7
2015-Aug-27 22:59N 25°38' W 049°30'0 0.1 29.7
2015-Aug-27 20:14N 25°38' W 049°31'1 0.2 30.3
2015-Aug-27 17:54N 25°38' W 049°30'0 1.2 30.5
2015-Aug-27 17:51N 25°38' W 049°30'0 0.2 30.5
2015-Aug-27 16:09N 25°38' W 049°30'1 0.2 30.7
2015-Aug-27 10:08N 25°39' W 049°29'0 0.1 28.5
2015-Aug-27 08:38N 25°39' W 049°29'0 0.2 28.5
2015-Aug-27 07:09N 25°39' W 049°29'0 0.1 28.6
2015-Aug-27 02:02N 25°39' W 049°29'0 0.2 29.2
2015-Aug-27 01:03N 25°39' W 049°29'1 0.3 29.4
2015-Aug-26 22:03N 25°39' W 049°28'0 0.6 29.9
2015-Aug-26 21:50N 25°38' W 049°28'1 0.6 30.0
2015-Aug-26 20:08N 25°38' W 049°28'0 0.1 30.5
2015-Aug-26 18:06N 25°38' W 049°28'1 0.4 30.5
2015-Aug-26 14:47N 25°38' W 049°26'0 0.4 29.0
2015-Aug-26 13:54N 25°38' W 049°26'1 0.6 28.7
2015-Aug-26 13:02N 25°38' W 049°25'1 0.3 28.5
2015-Aug-26 09:00N 25°38' W 049°24'1 6.5 28.2
2015-Aug-26 08:54N 25°38' W 049°24'0 0.1 28.2
2015-Aug-26 05:03N 25°39' W 049°24'0 2.6 28.2
2015-Aug-26 04:57N 25°38' W 049°24'1 0.2 28.2
2015-Aug-26 00:44N 25°38' W 049°24'0 0.0 28.4
2015-Aug-25 23:50N 25°38' W 049°24'0 0.2 28.5
2015-Aug-25 22:54N 25°38' W 049°24'1 0.5
2015-Aug-25 20:36N 25°37' W 049°23'0 0.7 28.7
2015-Aug-25 20:18N 25°37' W 049°23'1 0.5 28.7
2015-Aug-25 18:54N 25°37' W 049°22'4 0.5 28.7
2015-Aug-25 11:47N 25°35' W 049°18'1 7.3 28.2
2015-Aug-25 11:39N 25°36' W 049°18'0 0.0 28.2
2015-Aug-25 10:59N 25°36' W 049°18'1 0.8 28.1
2015-Aug-25 09:09N 25°35' W 049°17'0 4.9 28.1
2015-Aug-25 09:06N 25°36' W 049°17'0 0.1 28.1
2015-Aug-25 06:54N 25°36' W 049°17'1 0.3 28.2
2015-Aug-25 05:14N 25°35' W 049°16'112.3 28.2
2015-Aug-25 05:08N 25°35' W 049°15'0 0.0 28.2
2015-Aug-25 01:48N 25°35' W 049°15'0 1.2 28.2
2015-Aug-25 01:45N 25°35' W 049°15'0 0.1 28.2
2015-Aug-25 01:03N 25°35' W 049°15'0 1.6 28.2
2015-Aug-25 00:59N 25°35' W 049°15'0 0.0 28.2
2015-Aug-25 00:08N 25°35' W 049°15'1 0.3 28.2
2015-Aug-24 21:00N 25°34' W 049°14'0 2.5 28.3
2015-Aug-24 20:48N 25°34' W 049°14'0 0.1 28.3
2015-Aug-24 19:06N 25°34' W 049°14'3 0.6 28.3
2015-Aug-24 13:50N 25°31' W 049°12'1 0.9 28.1
2015-Aug-24 12:47N 25°31' W 049°11'1 1.4 28.1
2015-Aug-24 12:02N 25°31' W 049°10'0 0.3 28.1
2015-Aug-24 11:09N 25°30' W 049°10'1 0.4 28.1
2015-Aug-24 08:32N 25°30' W 049°09'0 0.3 28.1
2015-Aug-24 08:03N 25°30' W 049°09'3 0.5 28.1
2015-Aug-24 02:03N 25°30' W 049°05'2 0.3 28.1
2015-Aug-23 20:54N 25°29' W 049°03'1 0.4 28.2
2015-Aug-23 19:17N 25°29' W 049°03'2 0.8 28.2
2015-Aug-23 17:00N 25°28' W 049°01'113.0 28.2
2015-Aug-23 16:54N 25°27' W 049°00'0 0.0 28.2
2015-Aug-23 14:53N 25°27' W 049°00'1 1.0 28.0
2015-Aug-23 14:09N 25°27' W 048°59'3 0.7 28.0
2015-Aug-23 10:09N 25°26' W 048°57'1 0.6 27.9
2015-Aug-23 07:54N 25°26' W 048°55'4 1.0 28.0
2015-Aug-23 03:54N 25°24' W 048°52'0 0.0 28.0
2015-Aug-23 01:44N 25°24' W 048°52'0 0.5 28.1
2015-Aug-23 00:51N 25°24' W 048°51'0 0.5 28.3
2015-Aug-23 00:06N 25°23' W 048°51'0 2.9 28.4
2015-Aug-22 23:57N 25°23' W 048°51'0 0.3 28.4
2015-Aug-22 23:06N 25°23' W 048°51'1 0.6 28.5
2015-Aug-22 21:50N 25°23' W 048°50'0 0.6 28.6
2015-Aug-22 21:09N 25°23' W 048°50'022.6 28.6
2015-Aug-22 21:08N 25°22' W 048°50'0 0.4 28.6
2015-Aug-22 20:06N 25°22' W 048°50'1 1.1 28.6
2015-Aug-22 18:50N 25°21' W 048°49'0 0.1 28.6
2015-Aug-22 17:09N 25°21' W 048°49'2 0.3 28.5
2015-Aug-22 11:51N 25°20' W 048°48'1 0.7 27.9
2015-Aug-22 09:53N 25°18' W 048°47'1 0.8 28.0
2015-Aug-22 08:06N 25°17' W 048°46'2 2.2 28.1
2015-Aug-22 07:09N 25°17' W 048°44'1 0.2
2015-Aug-22 04:08N 25°16' W 048°43'0 0.0 28.2
2015-Aug-22 02:03N 25°16' W 048°43'2 0.5 28.4
2015-Aug-21 22:09N 25°16' W 048°41'1 0.2 28.9
2015-Aug-21 19:00N 25°16' W 048°41'1 0.3 29.7
2015-Aug-21 14:44N 25°15' W 048°41'0 0.0 29.1
2015-Aug-21 13:53N 25°15' W 048°41'0 0.3 28.9
2015-Aug-21 12:14N 25°15' W 048°40'0 3.4 28.5
2015-Aug-21 12:08N 25°15' W 048°40'0 0.3 28.4
2015-Aug-21 10:59N 25°15' W 048°40'0 0.5 28.2
2015-Aug-21 10:02N 25°15' W 048°40'0 5.6 28.1
2015-Aug-21 09:59N 25°15' W 048°40'1 0.8 28.1
2015-Aug-21 09:14N 25°14' W 048°39'0 0.0 28.2
2015-Aug-21 08:24N 25°14' W 048°39'0 1.1 28.2
2015-Aug-21 08:14N 25°14' W 048°39'1 0.3 28.2
2015-Aug-21 06:00N 25°14' W 048°39'1 5.0 28.2
2015-Aug-21 05:54N 25°14' W 048°38'0 7.4 28.2
2015-Aug-21 05:53N 25°14' W 048°38'0 0.1 28.3
2015-Aug-21 04:18N 25°14' W 048°38'1 0.5 28.3
2015-Aug-21 01:32N 25°14' W 048°36'0 0.0 28.2
2015-Aug-21 01:27N 25°14' W 048°36'0 0.3 28.2
2015-Aug-21 00:39N 25°14' W 048°36'0 0.4 28.1
2015-Aug-20 23:53N 25°14' W 048°36'0 0.3 28.1
2015-Aug-20 23:05N 25°14' W 048°36'0 3.5 28.2
2015-Aug-20 22:59N 25°14' W 048°35'0 0.1 28.2
2015-Aug-20 21:00N 25°14' W 048°35'0 0.1 28.5
2015-Aug-20 19:54N 25°14' W 048°35'0 0.3 28.8
2015-Aug-20 19:09N 25°14' W 048°35'0 0.5 28.9
2015-Aug-20 18:09N 25°14' W 048°35'0 0.2 28.9
2015-Aug-20 15:53N 25°14' W 048°34'1 0.3 28.5
2015-Aug-20 11:51N 25°14' W 048°33'1 0.4 27.9
2015-Aug-20 10:35N 25°13' W 048°33'0 0.7 27.8
2015-Aug-20 10:09N 25°14' W 048°33'1 0.5 27.8
2015-Aug-20 08:02N 25°14' W 048°32'0 0.0 27.8
2015-Aug-20 07:51N 25°14' W 048°32'1 0.5 27.9
2015-Aug-20 06:09N 25°13' W 048°31'139.1 27.9
2015-Aug-20 06:08N 25°13' W 048°30'1 0.3 27.9
2015-Aug-20 01:53N 25°13' W 048°29'0 0.7 27.9
2015-Aug-20 01:48N 25°13' W 048°29'2 0.4 27.9
2015-Aug-19 20:05N 25°14' W 048°26'012.6 28.3
2015-Aug-19 20:03N 25°14' W 048°27'0 0.0 28.3
2015-Aug-19 19:45N 25°14' W 048°27'2 0.4 28.3
2015-Aug-19 16:02N 25°13' W 048°26'1 0.2 28.2
2015-Aug-19 13:54N 25°13' W 048°25'0 0.0 28.0
2015-Aug-19 13:50N 25°13' W 048°25'1 0.5 28.0
2015-Aug-19 11:15N 25°13' W 048°24'0 2.5 27.7
2015-Aug-19 11:09N 25°13' W 048°23'0 0.2 27.7
2015-Aug-19 10:09N 25°13' W 048°23'2 0.5 27.7
2015-Aug-19 07:03N 25°13' W 048°22'0 0.1 27.8
2015-Aug-19 06:23N 25°13' W 048°22'0 1.6 27.8
2015-Aug-19 06:20N 25°13' W 048°22'0 4.6 27.8
2015-Aug-19 06:15N 25°13' W 048°21'3 0.4 27.8
2015-Aug-18 23:48N 25°13' W 048°18'1 0.7 28.1
2015-Aug-18 22:53N 25°13' W 048°18'0 3.5 28.1
2015-Aug-18 22:48N 25°14' W 048°18'0 0.2 28.1
2015-Aug-18 21:54N 25°14' W 048°18'221.8 28.2
2015-Aug-18 21:48N 25°15' W 048°16'2 1.5 28.2
2015-Aug-18 20:17N 25°14' W 048°18'0 0.1 28.3
2015-Aug-18 17:54N 25°14' W 048°18'0 0.0 28.3
2015-Aug-18 17:53N 25°14' W 048°18'0 0.3 28.3
2015-Aug-18 16:15N 25°13' W 048°18'1 1.1 28.1
2015-Aug-18 14:54N 25°12' W 048°17'0 0.1 27.9
2015-Aug-18 14:09N 25°12' W 048°17'1 0.7 27.9
2015-Aug-18 13:20N 25°12' W 048°16'1 0.7 27.9
2015-Aug-18 11:35N 25°11' W 048°15'1 6.8 27.7
2015-Aug-18 11:30N 25°12' W 048°15'0 0.1 27.7
2015-Aug-18 10:33N 25°12' W 048°15'1 1.1 27.7
2015-Aug-18 09:54N 25°11' W 048°14'1 0.6 27.7
2015-Aug-18 08:54N 25°11' W 048°14'   27.7

Dump ship's entire track history